KZR859 UAAA-UATE
Flight info
| Callsign | KZR859 |
|---|---|
| Flight time | N/A |
| Altitude | 38000 |
| Route | EKLAT1B EKLAT Z370 TOMGO M610 DIVNO N161 MASAV N37 GIGRI GIGRI1J |
| Aircraft | A21N/M-SDE2E3FGHIRWXY/LB1 |
Departure
| Time | 2026-05-08 06:30 |
|---|---|
| Airport | Almaty International Airport (UAAA) |
Arrival
| Time | N/A |
|---|---|
| Airport | Aktau International Airport (UATE) |
| Time | Latitude | Longitude | Altitude | Speed | Heading |
|---|---|---|---|---|---|
| 2026-05-08 06:11 | 43.34676 | 77.01298 | 2193 ft | 0 kts | 244° |
| 2026-05-08 06:23 | 43.34687 | 77.01327 | 2240 ft | 4 kts | 243° |
| 2026-05-08 06:23 | 43.34699 | 77.01359 | 2240 ft | 4 kts | 240° |
| 2026-05-08 06:24 | 43.34713 | 77.01391 | 2240 ft | 4 kts | 237° |
| 2026-05-08 06:24 | 43.34718 | 77.01402 | 2240 ft | 4 kts | 237° |
| 2026-05-08 06:25 | 43.34717 | 77.01404 | 2241 ft | 0 kts | 157° |
| 2026-05-08 06:27 | 43.34708 | 77.01410 | 2240 ft | 3 kts | 157° |
| 2026-05-08 06:27 | 43.34677 | 77.01428 | 2240 ft | 7 kts | 156° |
| 2026-05-08 06:27 | 43.34623 | 77.01461 | 2241 ft | 10 kts | 158° |
| 2026-05-08 06:28 | 43.34544 | 77.01484 | 2241 ft | 14 kts | 152° |
| 2026-05-08 06:28 | 43.34451 | 77.01546 | 2241 ft | 17 kts | 159° |
| 2026-05-08 06:28 | 43.34332 | 77.01610 | 2242 ft | 20 kts | 156° |
| 2026-05-08 06:28 | 43.34206 | 77.01649 | 2243 ft | 18 kts | 176° |
| 2026-05-08 06:29 | 43.34168 | 77.01814 | 2242 ft | 21 kts | 65° |
| 2026-05-08 06:29 | 43.34208 | 77.01923 | 2242 ft | 0 kts | 56° |
| 2026-05-08 06:29 | 43.34209 | 77.01926 | 2242 ft | 2 kts | 56° |
| 2026-05-08 06:29 | 43.34342 | 77.02196 | 2244 ft | 79 kts | 56° |
| 2026-05-08 06:30 | 43.34808 | 77.03130 | 2242 ft | 148 kts | 56° |
| 2026-05-08 06:30 | 43.35484 | 77.04476 | 2375 ft | 186 kts | 55° |
| 2026-05-08 06:30 | 43.36208 | 77.05916 | 3023 ft | 195 kts | 55° |
| 2026-05-08 06:30 | 43.37015 | 77.07538 | 3726 ft | 215 kts | 55° |
| 2026-05-08 06:31 | 43.37929 | 77.09300 | 4310 ft | 240 kts | 54° |
| 2026-05-08 06:31 | 43.38948 | 77.11246 | 5043 ft | 259 kts | 54° |
| 2026-05-08 06:31 | 43.40026 | 77.13307 | 5928 ft | 271 kts | 54° |
| 2026-05-08 06:31 | 43.41132 | 77.15427 | 6943 ft | 275 kts | 54° |
| 2026-05-08 06:32 | 43.42486 | 77.17347 | 7804 ft | 286 kts | 32° |
| 2026-05-08 06:32 | 43.44370 | 77.18283 | 8518 ft | 293 kts | 6° |
| 2026-05-08 06:32 | 43.46382 | 77.18001 | 8919 ft | 295 kts | 341° |
| 2026-05-08 06:32 | 43.48176 | 77.16606 | 9044 ft | 296 kts | 323° |
| 2026-05-08 06:33 | 43.49795 | 77.14859 | 9048 ft | 296 kts | 321° |
| 2026-05-08 06:33 | 43.51421 | 77.13108 | 9019 ft | 296 kts | 322° |
| 2026-05-08 06:33 | 43.53003 | 77.11320 | 8993 ft | 294 kts | 314° |
| 2026-05-08 06:33 | 43.54086 | 77.08961 | 9001 ft | 292 kts | 287° |
| 2026-05-08 06:34 | 43.54330 | 77.07143 | 9388 ft | 292 kts | 275° |
| 2026-05-08 06:34 | 43.54428 | 77.04322 | 10266 ft | 299 kts | 271° |
| 2026-05-08 06:34 | 43.54500 | 77.01417 | 11019 ft | 311 kts | 271° |
| 2026-05-08 06:34 | 43.54586 | 76.97401 | 11916 ft | 326 kts | 268° |
| 2026-05-08 06:35 | 43.54128 | 76.94271 | 12727 ft | 332 kts | 248° |
| 2026-05-08 06:35 | 43.53386 | 76.92381 | 13354 ft | 333 kts | 237° |
| 2026-05-08 06:35 | 43.51696 | 76.89002 | 14496 ft | 338 kts | 235° |
| 2026-05-08 06:35 | 43.50338 | 76.86327 | 15375 ft | 341 kts | 236° |
| 2026-05-08 06:36 | 43.48980 | 76.83621 | 16213 ft | 346 kts | 236° |
| 2026-05-08 06:36 | 43.47613 | 76.80875 | 17033 ft | 350 kts | 236° |
| 2026-05-08 06:36 | 43.46693 | 76.79024 | 17564 ft | 352 kts | 237° |
| 2026-05-08 06:36 | 43.45311 | 76.76229 | 18315 ft | 357 kts | 237° |
| 2026-05-08 06:37 | 43.43904 | 76.73391 | 19045 ft | 361 kts | 237° |
| 2026-05-08 06:37 | 43.42475 | 76.70505 | 19744 ft | 367 kts | 238° |
| 2026-05-08 06:37 | 43.41030 | 76.67582 | 20374 ft | 373 kts | 238° |
| 2026-05-08 06:37 | 43.39558 | 76.64608 | 21014 ft | 379 kts | 238° |
| 2026-05-08 06:38 | 43.38063 | 76.61585 | 21654 ft | 384 kts | 238° |
| 2026-05-08 06:38 | 43.36546 | 76.58532 | 22266 ft | 389 kts | 238° |
| 2026-05-08 06:38 | 43.35015 | 76.55445 | 22865 ft | 393 kts | 238° |
| 2026-05-08 06:38 | 43.33466 | 76.52323 | 23453 ft | 398 kts | 238° |
| 2026-05-08 06:39 | 43.31917 | 76.49209 | 24007 ft | 402 kts | 238° |
| 2026-05-08 06:39 | 43.30305 | 76.45980 | 24560 ft | 407 kts | 238° |
| 2026-05-08 06:39 | 43.28805 | 76.42720 | 25103 ft | 409 kts | 245° |
| 2026-05-08 06:39 | 43.27783 | 76.39106 | 25616 ft | 408 kts | 258° |
| 2026-05-08 06:40 | 43.27415 | 76.35259 | 26130 ft | 407 kts | 270° |
| 2026-05-08 06:40 | 43.27410 | 76.31356 | 26643 ft | 410 kts | 272° |
| 2026-05-08 06:40 | 43.27441 | 76.27603 | 27105 ft | 413 kts | 272° |
| 2026-05-08 06:40 | 43.27464 | 76.23644 | 27574 ft | 417 kts | 272° |
| 2026-05-08 06:41 | 43.27473 | 76.19638 | 28014 ft | 420 kts | 272° |
| 2026-05-08 06:41 | 43.27473 | 76.15609 | 28441 ft | 424 kts | 271° |
| 2026-05-08 06:41 | 43.27457 | 76.11557 | 28853 ft | 427 kts | 271° |
| 2026-05-08 06:41 | 43.27436 | 76.07467 | 29255 ft | 430 kts | 271° |
| 2026-05-08 06:42 | 43.27460 | 76.03362 | 29640 ft | 432 kts | 275° |
| 2026-05-08 06:42 | 43.27897 | 75.99276 | 30010 ft | 433 kts | 285° |
| 2026-05-08 06:42 | 43.28708 | 75.95287 | 30360 ft | 436 kts | 288° |
| 2026-05-08 06:42 | 43.29592 | 75.91296 | 30720 ft | 438 kts | 288° |
| 2026-05-08 06:43 | 43.30472 | 75.87306 | 31093 ft | 440 kts | 288° |
| 2026-05-08 06:43 | 43.31353 | 75.83257 | 31468 ft | 442 kts | 288° |
| 2026-05-08 06:43 | 43.32213 | 75.79255 | 31823 ft | 443 kts | 288° |
| 2026-05-08 06:43 | 43.33082 | 75.75184 | 32165 ft | 445 kts | 288° |
| 2026-05-08 06:44 | 43.33953 | 75.71108 | 32577 ft | 444 kts | 288° |
| 2026-05-08 06:44 | 43.34816 | 75.67058 | 33024 ft | 442 kts | 288° |
| 2026-05-08 06:44 | 43.35675 | 75.63003 | 33489 ft | 440 kts | 288° |
| 2026-05-08 06:44 | 43.36524 | 75.58989 | 33908 ft | 439 kts | 288° |
| 2026-05-08 06:45 | 43.37371 | 75.54962 | 34338 ft | 436 kts | 287° |
| 2026-05-08 06:45 | 43.38146 | 75.50921 | 34737 ft | 435 kts | 286° |
| 2026-05-08 06:45 | 43.38843 | 75.47195 | 35060 ft | 435 kts | 286° |
| 2026-05-08 06:45 | 43.39598 | 75.43144 | 35394 ft | 435 kts | 286° |
| 2026-05-08 06:46 | 43.40347 | 75.39111 | 35717 ft | 434 kts | 286° |
| 2026-05-08 06:46 | 43.41087 | 75.35117 | 36032 ft | 434 kts | 286° |
| 2026-05-08 06:46 | 43.41836 | 75.31070 | 36331 ft | 434 kts | 286° |
| 2026-05-08 06:46 | 43.42578 | 75.27050 | 36599 ft | 434 kts | 285° |
| 2026-05-08 06:47 | 43.43310 | 75.23070 | 36850 ft | 434 kts | 285° |
| 2026-05-08 06:47 | 43.44050 | 75.19064 | 37189 ft | 431 kts | 285° |
| 2026-05-08 06:47 | 43.44783 | 75.15092 | 37525 ft | 429 kts | 284° |
| 2026-05-08 06:47 | 43.45515 | 75.11109 | 37735 ft | 430 kts | 284° |
| 2026-05-08 06:48 | 43.46250 | 75.07092 | 37912 ft | 431 kts | 284° |
| 2026-05-08 06:48 | 43.46979 | 75.03095 | 38091 ft | 432 kts | 284° |
| 2026-05-08 06:48 | 43.48447 | 74.95033 | 38091 ft | 433 kts | 284° |
| 2026-05-08 06:49 | 43.49906 | 74.86979 | 38058 ft | 434 kts | 284° |
| 2026-05-08 06:49 | 43.51367 | 74.78889 | 38053 ft | 435 kts | 284° |
| 2026-05-08 06:50 | 43.52821 | 74.70795 | 38055 ft | 435 kts | 284° |
| 2026-05-08 06:50 | 43.54236 | 74.62859 | 38048 ft | 434 kts | 284° |
| 2026-05-08 06:51 | 43.55675 | 74.54753 | 38053 ft | 434 kts | 284° |
| 2026-05-08 06:51 | 43.57098 | 74.46717 | 38055 ft | 434 kts | 284° |
| 2026-05-08 06:52 | 43.58528 | 74.38626 | 38053 ft | 433 kts | 283° |
| 2026-05-08 06:52 | 43.59945 | 74.30553 | 38053 ft | 433 kts | 283° |
| 2026-05-08 06:53 | 43.61349 | 74.22475 | 38054 ft | 432 kts | 283° |
| 2026-05-08 06:53 | 43.62758 | 74.14417 | 38054 ft | 432 kts | 283° |
| 2026-05-08 06:54 | 43.64159 | 74.06390 | 38053 ft | 431 kts | 283° |
| 2026-05-08 06:54 | 43.65553 | 73.98314 | 38057 ft | 430 kts | 283° |
| 2026-05-08 06:55 | 43.66929 | 73.90275 | 38055 ft | 430 kts | 283° |
| 2026-05-08 06:55 | 43.68273 | 73.82479 | 38041 ft | 429 kts | 283° |
| 2026-05-08 06:56 | 43.69443 | 73.74348 | 38042 ft | 429 kts | 274° |
| 2026-05-08 06:56 | 43.69201 | 73.66106 | 38057 ft | 430 kts | 266° |
| 2026-05-08 06:57 | 43.68740 | 73.57914 | 38053 ft | 429 kts | 266° |
| 2026-05-08 06:57 | 43.68307 | 73.49678 | 38053 ft | 429 kts | 266° |
| 2026-05-08 06:58 | 43.67877 | 73.41456 | 38053 ft | 429 kts | 266° |
| 2026-05-08 06:58 | 43.67440 | 73.33233 | 38052 ft | 429 kts | 266° |
| 2026-05-08 06:59 | 43.66997 | 73.25000 | 38053 ft | 430 kts | 266° |
| 2026-05-08 06:59 | 43.66546 | 73.16763 | 38053 ft | 430 kts | 266° |
| 2026-05-08 07:00 | 43.66090 | 73.08541 | 38053 ft | 430 kts | 266° |
| 2026-05-08 07:00 | 43.65635 | 73.00473 | 38053 ft | 430 kts | 265° |
| 2026-05-08 07:01 | 43.65172 | 72.92241 | 38052 ft | 430 kts | 265° |
| 2026-05-08 07:01 | 43.64701 | 72.84025 | 38053 ft | 430 kts | 265° |
| 2026-05-08 07:02 | 43.64232 | 72.75921 | 38049 ft | 425 kts | 266° |
| 2026-05-08 07:02 | 43.63747 | 72.67765 | 38052 ft | 425 kts | 265° |
| 2026-05-08 07:03 | 43.63266 | 72.59625 | 38052 ft | 426 kts | 265° |
| 2026-05-08 07:03 | 43.62773 | 72.51473 | 38053 ft | 426 kts | 265° |
| 2026-05-08 07:04 | 43.62281 | 72.43340 | 38051 ft | 426 kts | 265° |
| 2026-05-08 07:04 | 43.61776 | 72.35191 | 38052 ft | 426 kts | 265° |
| 2026-05-08 07:05 | 43.61267 | 72.27037 | 38055 ft | 426 kts | 265° |
| 2026-05-08 07:05 | 43.60763 | 72.19078 | 38048 ft | 426 kts | 265° |
| 2026-05-08 07:06 | 43.60250 | 72.10988 | 38053 ft | 425 kts | 265° |
| 2026-05-08 07:06 | 43.59721 | 72.02815 | 38051 ft | 425 kts | 265° |
| 2026-05-08 07:07 | 43.59194 | 71.94729 | 38052 ft | 425 kts | 265° |
| 2026-05-08 07:07 | 43.58656 | 71.86611 | 38052 ft | 425 kts | 265° |
| 2026-05-08 07:08 | 43.58112 | 71.78489 | 38052 ft | 425 kts | 265° |
| 2026-05-08 07:08 | 43.57561 | 71.70355 | 38054 ft | 425 kts | 265° |
| 2026-05-08 07:09 | 43.57003 | 71.62228 | 38053 ft | 425 kts | 265° |
| 2026-05-08 07:09 | 43.56446 | 71.54116 | 38053 ft | 425 kts | 265° |
| 2026-05-08 07:10 | 43.55888 | 71.46065 | 38053 ft | 425 kts | 265° |
| 2026-05-08 07:10 | 43.55322 | 71.38088 | 38062 ft | 424 kts | 265° |
| 2026-05-08 07:11 | 43.54747 | 71.29992 | 38054 ft | 424 kts | 265° |
| 2026-05-08 07:11 | 43.54168 | 71.21903 | 38053 ft | 424 kts | 265° |
| 2026-05-08 07:12 | 43.53584 | 71.13849 | 38054 ft | 418 kts | 265° |
| 2026-05-08 07:12 | 43.52998 | 71.05855 | 38054 ft | 419 kts | 265° |
| 2026-05-08 07:13 | 43.52406 | 70.97878 | 38054 ft | 419 kts | 265° |
| 2026-05-08 07:13 | 43.51835 | 70.89936 | 38051 ft | 418 kts | 267° |
| 2026-05-08 07:14 | 43.52483 | 70.81972 | 38055 ft | 419 kts | 286° |
| 2026-05-08 07:14 | 43.54389 | 70.74442 | 38055 ft | 419 kts | 289° |
| 2026-05-08 07:15 | 43.56323 | 70.66867 | 38053 ft | 419 kts | 288° |
| 2026-05-08 07:15 | 43.58189 | 70.59423 | 38090 ft | 417 kts | 288° |
| 2026-05-08 07:16 | 43.60078 | 70.51811 | 38062 ft | 419 kts | 288° |
| 2026-05-08 07:16 | 43.61968 | 70.44198 | 38053 ft | 419 kts | 288° |
| 2026-05-08 07:17 | 43.63851 | 70.36568 | 38053 ft | 421 kts | 288° |
| 2026-05-08 07:17 | 43.65733 | 70.28920 | 38054 ft | 421 kts | 287° |
| 2026-05-08 07:18 | 43.67610 | 70.21266 | 38053 ft | 420 kts | 288° |
| 2026-05-08 07:18 | 43.69471 | 70.13674 | 38053 ft | 420 kts | 287° |
| 2026-05-08 07:19 | 43.71334 | 70.06016 | 38054 ft | 420 kts | 287° |
| 2026-05-08 07:19 | 43.73198 | 69.98352 | 38054 ft | 420 kts | 287° |
| 2026-05-08 07:20 | 43.75055 | 69.90682 | 38053 ft | 420 kts | 287° |
| 2026-05-08 07:20 | 43.76867 | 69.83156 | 38057 ft | 420 kts | 287° |
| 2026-05-08 07:21 | 43.78718 | 69.75479 | 38052 ft | 420 kts | 287° |
| 2026-05-08 07:21 | 43.80552 | 69.67815 | 38053 ft | 420 kts | 287° |
| 2026-05-08 07:22 | 43.82384 | 69.60159 | 37998 ft | 416 kts | 287° |
| 2026-05-08 07:22 | 43.84185 | 69.52595 | 37961 ft | 417 kts | 287° |
| 2026-05-08 07:23 | 43.85997 | 69.44962 | 37972 ft | 417 kts | 287° |
| 2026-05-08 07:23 | 43.87803 | 69.37316 | 37958 ft | 417 kts | 287° |
| 2026-05-08 07:24 | 43.89601 | 69.29687 | 37963 ft | 417 kts | 287° |
| 2026-05-08 07:24 | 43.91397 | 69.22044 | 37972 ft | 416 kts | 287° |
| 2026-05-08 07:25 | 43.92938 | 69.15717 | 37960 ft | 416 kts | 288° |
| 2026-05-08 07:26 | 43.95701 | 69.04464 | 37972 ft | 416 kts | 288° |
| 2026-05-08 07:26 | 43.97552 | 68.96841 | 37966 ft | 416 kts | 288° |
| 2026-05-08 07:27 | 43.99399 | 68.89226 | 37963 ft | 417 kts | 287° |
| 2026-05-08 07:27 | 44.01245 | 68.81577 | 37971 ft | 418 kts | 287° |
| 2026-05-08 07:28 | 44.03085 | 68.73921 | 37966 ft | 418 kts | 287° |
| 2026-05-08 07:28 | 44.04860 | 68.66232 | 37954 ft | 417 kts | 287° |
| 2026-05-08 07:29 | 44.06623 | 68.58551 | 37977 ft | 417 kts | 287° |
| 2026-05-08 07:29 | 44.08393 | 68.50844 | 37961 ft | 417 kts | 287° |
| 2026-05-08 07:30 | 44.10149 | 68.43162 | 37958 ft | 417 kts | 287° |
| 2026-05-08 07:30 | 44.11864 | 68.35637 | 37956 ft | 417 kts | 287° |
| 2026-05-08 07:31 | 44.13609 | 68.27950 | 37963 ft | 418 kts | 287° |
| 2026-05-08 07:31 | 44.15357 | 68.20227 | 37964 ft | 418 kts | 286° |
| 2026-05-08 07:32 | 44.17080 | 68.12497 | 37963 ft | 418 kts | 286° |
| 2026-05-08 07:32 | 44.18801 | 68.04753 | 37965 ft | 419 kts | 285° |
| 2026-05-08 07:33 | 44.20521 | 67.96979 | 37969 ft | 420 kts | 285° |
| 2026-05-08 07:33 | 44.22233 | 67.89234 | 37956 ft | 420 kts | 285° |
| 2026-05-08 07:34 | 44.23962 | 67.81396 | 37956 ft | 422 kts | 285° |
| 2026-05-08 07:34 | 44.25684 | 67.73568 | 37966 ft | 422 kts | 285° |
| 2026-05-08 07:35 | 44.27385 | 67.65737 | 37952 ft | 421 kts | 285° |
| 2026-05-08 07:35 | 44.29032 | 67.58195 | 37969 ft | 421 kts | 285° |
| 2026-05-08 07:36 | 44.30733 | 67.50378 | 37955 ft | 421 kts | 285° |
| 2026-05-08 07:36 | 44.32437 | 67.42549 | 37967 ft | 420 kts | 285° |
| 2026-05-08 07:37 | 44.34126 | 67.34785 | 37965 ft | 420 kts | 285° |
| 2026-05-08 07:37 | 44.35806 | 67.26987 | 37962 ft | 420 kts | 285° |
| 2026-05-08 07:38 | 44.37489 | 67.19181 | 37975 ft | 419 kts | 285° |
| 2026-05-08 07:38 | 44.39163 | 67.11378 | 37966 ft | 418 kts | 285° |
| 2026-05-08 07:39 | 44.40827 | 67.03596 | 37959 ft | 418 kts | 285° |
| 2026-05-08 07:39 | 44.42483 | 66.95800 | 37961 ft | 418 kts | 285° |
| 2026-05-08 07:40 | 44.44133 | 66.88011 | 37972 ft | 418 kts | 284° |
| 2026-05-08 07:40 | 44.45717 | 66.80506 | 37961 ft | 417 kts | 284° |
| 2026-05-08 07:41 | 44.47373 | 66.72662 | 37967 ft | 417 kts | 284° |
| 2026-05-08 07:41 | 44.49013 | 66.64859 | 37960 ft | 417 kts | 284° |
| 2026-05-08 07:42 | 44.50629 | 66.57127 | 37961 ft | 417 kts | 284° |
| 2026-05-08 07:42 | 44.52146 | 66.49300 | 37991 ft | 411 kts | 283° |
| 2026-05-08 07:43 | 44.53631 | 66.41554 | 37994 ft | 412 kts | 283° |
| 2026-05-08 07:43 | 44.55111 | 66.33801 | 37994 ft | 412 kts | 283° |
| 2026-05-08 07:44 | 44.56579 | 66.26098 | 37993 ft | 412 kts | 283° |
| 2026-05-08 07:44 | 44.58042 | 66.18339 | 37994 ft | 412 kts | 283° |
| 2026-05-08 07:45 | 44.59514 | 66.10561 | 37994 ft | 412 kts | 283° |
| 2026-05-08 07:45 | 44.60926 | 66.03013 | 37962 ft | 412 kts | 283° |
| 2026-05-08 07:46 | 44.62382 | 65.95241 | 37980 ft | 412 kts | 283° |
| 2026-05-08 07:46 | 44.63833 | 65.87464 | 37992 ft | 412 kts | 283° |
| 2026-05-08 07:47 | 44.65282 | 65.79694 | 37997 ft | 411 kts | 282° |
| 2026-05-08 07:47 | 44.66702 | 65.71987 | 37994 ft | 406 kts | 282° |
| 2026-05-08 07:48 | 44.68116 | 65.64303 | 37995 ft | 406 kts | 282° |
| 2026-05-08 07:48 | 44.69522 | 65.56647 | 37994 ft | 406 kts | 282° |
| 2026-05-08 07:49 | 44.70961 | 65.48965 | 37994 ft | 407 kts | 283° |
| 2026-05-08 07:49 | 44.72410 | 65.41297 | 37994 ft | 406 kts | 282° |
| 2026-05-08 07:50 | 44.73846 | 65.33604 | 37994 ft | 406 kts | 282° |
| 2026-05-08 07:50 | 44.75239 | 65.26124 | 37999 ft | 406 kts | 282° |
| 2026-05-08 07:51 | 44.76670 | 65.18422 | 37995 ft | 406 kts | 282° |
| 2026-05-08 07:51 | 44.78094 | 65.10731 | 37994 ft | 406 kts | 282° |
| 2026-05-08 07:52 | 44.79501 | 65.03092 | 37994 ft | 406 kts | 282° |
| 2026-05-08 07:52 | 44.80915 | 64.95381 | 37992 ft | 406 kts | 282° |
| 2026-05-08 07:53 | 44.82320 | 64.87685 | 37993 ft | 406 kts | 282° |
| 2026-05-08 07:53 | 44.83669 | 64.79977 | 37994 ft | 405 kts | 282° |
| 2026-05-08 07:54 | 44.85001 | 64.72261 | 37994 ft | 405 kts | 282° |
| 2026-05-08 07:54 | 44.86330 | 64.64540 | 37994 ft | 405 kts | 281° |
| 2026-05-08 07:55 | 44.87635 | 64.56797 | 37993 ft | 405 kts | 281° |
| 2026-05-08 07:55 | 44.88847 | 64.49228 | 37987 ft | 405 kts | 281° |
| 2026-05-08 07:56 | 44.90085 | 64.41516 | 37993 ft | 405 kts | 281° |
| 2026-05-08 07:56 | 44.91325 | 64.33769 | 37994 ft | 405 kts | 281° |
| 2026-05-08 07:57 | 44.92559 | 64.26043 | 37997 ft | 404 kts | 280° |
| 2026-05-08 07:57 | 44.93777 | 64.18344 | 37994 ft | 400 kts | 280° |
| 2026-05-08 07:58 | 44.94984 | 64.10685 | 37994 ft | 400 kts | 280° |
| 2026-05-08 07:58 | 44.96190 | 64.02993 | 37994 ft | 400 kts | 280° |
| 2026-05-08 07:59 | 44.97390 | 63.95318 | 37994 ft | 400 kts | 280° |
| 2026-05-08 07:59 | 44.98582 | 63.87658 | 37989 ft | 400 kts | 280° |
| 2026-05-08 08:00 | 44.99772 | 63.79962 | 37992 ft | 400 kts | 279° |
| 2026-05-08 08:00 | 45.00913 | 63.72550 | 37992 ft | 400 kts | 279° |
| 2026-05-08 08:01 | 45.02091 | 63.64864 | 37978 ft | 400 kts | 279° |
| 2026-05-08 08:01 | 45.03264 | 63.57180 | 37988 ft | 400 kts | 279° |
| 2026-05-08 08:02 | 45.04427 | 63.49507 | 37990 ft | 401 kts | 279° |
| 2026-05-08 08:02 | 45.05602 | 63.41737 | 37997 ft | 406 kts | 278° |
| 2026-05-08 08:03 | 45.06779 | 63.33908 | 37995 ft | 406 kts | 278° |
| 2026-05-08 08:03 | 45.07942 | 63.26136 | 37997 ft | 406 kts | 278° |
| 2026-05-08 08:04 | 45.09100 | 63.18331 | 37997 ft | 406 kts | 278° |
| 2026-05-08 08:04 | 45.10257 | 63.10504 | 37985 ft | 406 kts | 278° |
| 2026-05-08 08:05 | 45.11409 | 63.02690 | 37983 ft | 406 kts | 278° |
| 2026-05-08 08:05 | 45.12502 | 62.95237 | 37993 ft | 406 kts | 278° |
| 2026-05-08 08:06 | 45.13647 | 62.87395 | 37992 ft | 406 kts | 278° |
| 2026-05-08 08:06 | 45.14784 | 62.79553 | 37994 ft | 406 kts | 278° |
| 2026-05-08 08:07 | 45.15915 | 62.71721 | 37983 ft | 405 kts | 277° |
| 2026-05-08 08:07 | 45.17037 | 62.63908 | 37965 ft | 404 kts | 277° |
| 2026-05-08 08:08 | 45.18152 | 62.56089 | 37966 ft | 404 kts | 277° |
| 2026-05-08 08:08 | 45.19266 | 62.48278 | 37965 ft | 404 kts | 277° |
| 2026-05-08 08:09 | 45.20374 | 62.40472 | 37964 ft | 404 kts | 277° |
| 2026-05-08 08:09 | 45.21468 | 62.32700 | 37964 ft | 404 kts | 277° |
| 2026-05-08 08:10 | 45.22560 | 62.24913 | 37961 ft | 404 kts | 277° |
| 2026-05-08 08:10 | 45.23452 | 62.18528 | 37955 ft | 404 kts | 277° |
| 2026-05-08 08:11 | 45.24700 | 62.09418 | 37973 ft | 404 kts | 277° |
| 2026-05-08 08:11 | 45.25592 | 62.02905 | 37970 ft | 404 kts | 277° |
| 2026-05-08 08:12 | 45.26677 | 61.95116 | 37967 ft | 403 kts | 277° |
| 2026-05-08 08:12 | 45.27926 | 61.86021 | 37957 ft | 403 kts | 277° |
| 2026-05-08 08:13 | 45.28814 | 61.79474 | 37961 ft | 403 kts | 277° |
| 2026-05-08 08:13 | 45.29872 | 61.71631 | 37961 ft | 403 kts | 277° |
| 2026-05-08 08:14 | 45.30924 | 61.63803 | 37968 ft | 403 kts | 277° |
| 2026-05-08 08:14 | 45.31966 | 61.55993 | 37965 ft | 403 kts | 277° |
| 2026-05-08 08:15 | 45.32998 | 61.48195 | 37956 ft | 403 kts | 277° |
| 2026-05-08 08:15 | 45.34018 | 61.40468 | 37971 ft | 403 kts | 277° |
| 2026-05-08 08:16 | 45.35038 | 61.32674 | 37958 ft | 403 kts | 277° |
| 2026-05-08 08:16 | 45.36063 | 61.24835 | 37968 ft | 403 kts | 277° |
| 2026-05-08 08:17 | 45.37081 | 61.16984 | 37980 ft | 404 kts | 276° |
| 2026-05-08 08:17 | 45.38092 | 61.09133 | 38058 ft | 405 kts | 276° |
| 2026-05-08 08:18 | 45.39109 | 61.01249 | 38089 ft | 406 kts | 276° |
| 2026-05-08 08:18 | 45.40111 | 60.93398 | 38088 ft | 406 kts | 276° |
| 2026-05-08 08:19 | 45.41113 | 60.85495 | 38080 ft | 406 kts | 276° |
| 2026-05-08 08:19 | 45.42108 | 60.77596 | 38080 ft | 406 kts | 276° |
| 2026-05-08 08:20 | 45.43047 | 60.69664 | 38083 ft | 405 kts | 275° |
| 2026-05-08 08:20 | 45.43905 | 60.61953 | 38085 ft | 405 kts | 275° |
| 2026-05-08 08:21 | 45.44815 | 60.54039 | 38082 ft | 405 kts | 275° |
| 2026-05-08 08:21 | 45.45712 | 60.46110 | 38082 ft | 405 kts | 275° |
| 2026-05-08 08:22 | 45.46614 | 60.38182 | 38083 ft | 405 kts | 275° |
| 2026-05-08 08:22 | 45.47507 | 60.30285 | 38081 ft | 403 kts | 274° |
| 2026-05-08 08:23 | 45.48386 | 60.22416 | 38082 ft | 403 kts | 274° |
| 2026-05-08 08:23 | 45.49259 | 60.14520 | 38082 ft | 403 kts | 274° |
| 2026-05-08 08:24 | 45.50125 | 60.06648 | 38085 ft | 402 kts | 274° |
| 2026-05-08 08:24 | 45.50988 | 59.98760 | 38085 ft | 402 kts | 274° |
| 2026-05-08 08:25 | 45.51844 | 59.90857 | 38085 ft | 402 kts | 274° |
| 2026-05-08 08:25 | 45.52672 | 59.83199 | 38092 ft | 402 kts | 274° |
| 2026-05-08 08:26 | 45.53511 | 59.75357 | 38082 ft | 402 kts | 274° |
| 2026-05-08 08:26 | 45.54356 | 59.67421 | 38082 ft | 402 kts | 274° |
| 2026-05-08 08:27 | 45.55193 | 59.59521 | 38087 ft | 402 kts | 274° |
| 2026-05-08 08:27 | 45.56014 | 59.51712 | 38081 ft | 400 kts | 274° |
| 2026-05-08 08:28 | 45.56833 | 59.43848 | 38081 ft | 400 kts | 274° |
| 2026-05-08 08:28 | 45.57646 | 59.35982 | 38085 ft | 400 kts | 273° |
| 2026-05-08 08:29 | 45.58456 | 59.28124 | 38081 ft | 400 kts | 273° |
| 2026-05-08 08:29 | 45.59260 | 59.20244 | 38082 ft | 400 kts | 273° |
| 2026-05-08 08:30 | 45.60054 | 59.12428 | 38082 ft | 400 kts | 273° |
| 2026-05-08 08:30 | 45.61232 | 59.00722 | 38080 ft | 400 kts | 273° |
| 2026-05-08 08:31 | 45.62008 | 58.92909 | 38089 ft | 400 kts | 273° |
| 2026-05-08 08:31 | 45.62787 | 58.85029 | 38087 ft | 400 kts | 273° |
| 2026-05-08 08:32 | 45.63558 | 58.77170 | 38081 ft | 401 kts | 272° |
| 2026-05-08 08:32 | 45.64327 | 58.69260 | 38082 ft | 401 kts | 272° |
| 2026-05-08 08:33 | 45.65097 | 58.61361 | 38080 ft | 401 kts | 272° |
| 2026-05-08 08:33 | 45.65856 | 58.53439 | 38087 ft | 402 kts | 272° |
| 2026-05-08 08:34 | 45.66611 | 58.45518 | 38082 ft | 402 kts | 272° |
| 2026-05-08 08:34 | 45.67361 | 58.37601 | 38082 ft | 402 kts | 272° |
| 2026-05-08 08:35 | 45.68104 | 58.29713 | 38082 ft | 402 kts | 272° |
| 2026-05-08 08:35 | 45.68818 | 58.22041 | 38091 ft | 402 kts | 272° |
| 2026-05-08 08:36 | 45.69552 | 58.14131 | 38083 ft | 402 kts | 272° |
| 2026-05-08 08:36 | 45.70280 | 58.06201 | 38080 ft | 402 kts | 272° |
| 2026-05-08 08:37 | 45.70999 | 57.98306 | 38083 ft | 397 kts | 273° |
| 2026-05-08 08:37 | 45.71709 | 57.90455 | 38076 ft | 397 kts | 273° |
| 2026-05-08 08:38 | 45.72409 | 57.82620 | 38072 ft | 396 kts | 272° |
| 2026-05-08 08:38 | 45.73107 | 57.74786 | 38081 ft | 396 kts | 272° |
| 2026-05-08 08:39 | 45.73446 | 57.66982 | 38080 ft | 391 kts | 262° |
| 2026-05-08 08:39 | 45.72106 | 57.59510 | 38090 ft | 387 kts | 249° |
| 2026-05-08 08:40 | 45.70245 | 57.52331 | 38083 ft | 387 kts | 249° |
| 2026-05-08 08:40 | 45.68470 | 57.45310 | 38086 ft | 387 kts | 249° |
| 2026-05-08 08:41 | 45.66659 | 57.38101 | 38078 ft | 387 kts | 249° |
| 2026-05-08 08:41 | 45.64836 | 57.30874 | 38082 ft | 387 kts | 249° |
| 2026-05-08 08:42 | 45.63004 | 57.23659 | 38084 ft | 387 kts | 249° |
| 2026-05-08 08:42 | 45.61167 | 57.16422 | 38081 ft | 387 kts | 249° |
| 2026-05-08 08:43 | 45.59328 | 57.09197 | 38085 ft | 387 kts | 249° |
| 2026-05-08 08:43 | 45.57485 | 57.01986 | 38089 ft | 387 kts | 249° |
| 2026-05-08 08:44 | 45.55635 | 56.94768 | 38085 ft | 387 kts | 249° |
| 2026-05-08 08:44 | 45.53786 | 56.87570 | 38080 ft | 387 kts | 249° |
| 2026-05-08 08:45 | 45.51936 | 56.80402 | 38087 ft | 387 kts | 248° |
| 2026-05-08 08:45 | 45.50107 | 56.73351 | 38087 ft | 387 kts | 248° |
| 2026-05-08 08:46 | 45.48241 | 56.66155 | 38087 ft | 387 kts | 248° |
| 2026-05-08 08:46 | 45.46367 | 56.58978 | 38087 ft | 387 kts | 248° |
| 2026-05-08 08:47 | 45.44492 | 56.51782 | 38082 ft | 389 kts | 248° |
| 2026-05-08 08:47 | 45.42596 | 56.44540 | 38078 ft | 389 kts | 248° |
| 2026-05-08 08:48 | 45.40697 | 56.37324 | 38080 ft | 389 kts | 248° |
| 2026-05-08 08:48 | 45.38800 | 56.30128 | 38080 ft | 389 kts | 248° |
| 2026-05-08 08:49 | 45.36893 | 56.22919 | 38086 ft | 389 kts | 248° |
| 2026-05-08 08:49 | 45.34988 | 56.15751 | 38078 ft | 389 kts | 248° |
| 2026-05-08 08:50 | 45.33070 | 56.08549 | 38076 ft | 389 kts | 248° |
| 2026-05-08 08:50 | 45.31205 | 56.01570 | 38083 ft | 389 kts | 248° |
| 2026-05-08 08:51 | 45.29277 | 55.94389 | 38082 ft | 389 kts | 248° |
| 2026-05-08 08:51 | 45.27417 | 55.87458 | 38093 ft | 389 kts | 248° |
| 2026-05-08 08:52 | 45.25492 | 55.80297 | 37997 ft | 389 kts | 248° |
| 2026-05-08 08:52 | 45.23556 | 55.73120 | 37912 ft | 388 kts | 248° |
| 2026-05-08 08:53 | 45.21621 | 55.65959 | 37905 ft | 388 kts | 248° |
| 2026-05-08 08:53 | 45.19699 | 55.58885 | 37904 ft | 388 kts | 248° |
| 2026-05-08 08:54 | 45.17752 | 55.51743 | 37904 ft | 388 kts | 248° |
| 2026-05-08 08:54 | 45.15802 | 55.44603 | 37904 ft | 388 kts | 248° |
| 2026-05-08 08:55 | 45.13843 | 55.37476 | 37905 ft | 388 kts | 248° |
| 2026-05-08 08:55 | 45.11930 | 55.30534 | 37905 ft | 388 kts | 248° |
| 2026-05-08 08:56 | 45.09970 | 55.23404 | 37905 ft | 388 kts | 248° |
| 2026-05-08 08:56 | 45.08006 | 55.16288 | 37906 ft | 388 kts | 248° |
| 2026-05-08 08:57 | 45.06030 | 55.09177 | 37907 ft | 388 kts | 248° |
| 2026-05-08 08:57 | 45.04388 | 55.03287 | 37905 ft | 388 kts | 248° |
| 2026-05-08 08:58 | 45.02080 | 54.95001 | 37904 ft | 386 kts | 248° |
| 2026-05-08 08:58 | 45.00439 | 54.89123 | 37906 ft | 385 kts | 248° |
| 2026-05-08 08:59 | 44.98470 | 54.82099 | 37905 ft | 385 kts | 247° |
| 2026-05-08 08:59 | 44.96490 | 54.75069 | 37902 ft | 385 kts | 247° |
| 2026-05-08 09:00 | 44.94509 | 54.68048 | 37904 ft | 384 kts | 247° |
| 2026-05-08 09:00 | 44.92588 | 54.61258 | 37910 ft | 383 kts | 247° |
| 2026-05-08 09:01 | 44.90632 | 54.54360 | 37900 ft | 376 kts | 247° |
| 2026-05-08 09:01 | 44.88657 | 54.47431 | 37908 ft | 384 kts | 247° |
| 2026-05-08 09:02 | 44.86672 | 54.40463 | 38013 ft | 381 kts | 246° |
| 2026-05-08 09:02 | 44.84678 | 54.33523 | 38070 ft | 381 kts | 246° |
| 2026-05-08 09:03 | 44.82692 | 54.26593 | 38080 ft | 381 kts | 246° |
| 2026-05-08 09:03 | 44.80728 | 54.19748 | 38074 ft | 371 kts | 245° |
| 2026-05-08 09:04 | 44.78754 | 54.12911 | 38090 ft | 381 kts | 246° |
| 2026-05-08 09:04 | 44.76750 | 54.05988 | 38083 ft | 382 kts | 245° |
| 2026-05-08 09:05 | 44.74746 | 53.99081 | 38082 ft | 382 kts | 245° |
| 2026-05-08 09:05 | 44.72779 | 53.92323 | 38078 ft | 382 kts | 245° |
| 2026-05-08 09:06 | 44.70797 | 53.85526 | 38074 ft | 372 kts | 245° |
| 2026-05-08 09:06 | 44.68810 | 53.78743 | 38087 ft | 380 kts | 245° |
| 2026-05-08 09:07 | 44.66775 | 53.71801 | 38067 ft | 387 kts | 245° |
| 2026-05-08 09:07 | 44.64712 | 53.64795 | 38055 ft | 388 kts | 245° |
| 2026-05-08 09:08 | 44.62649 | 53.57800 | 37882 ft | 385 kts | 245° |
| 2026-05-08 09:08 | 44.61627 | 53.54338 | 37599 ft | 384 kts | 245° |
| 2026-05-08 09:08 | 44.60613 | 53.50929 | 37370 ft | 383 kts | 245° |
| 2026-05-08 09:09 | 44.59585 | 53.47473 | 37115 ft | 382 kts | 245° |
| 2026-05-08 09:09 | 44.58562 | 53.44029 | 36812 ft | 382 kts | 245° |
| 2026-05-08 09:09 | 44.57545 | 53.40608 | 36292 ft | 379 kts | 245° |
| 2026-05-08 09:09 | 44.56532 | 53.37201 | 35712 ft | 377 kts | 245° |
| 2026-05-08 09:10 | 44.55528 | 53.33829 | 35124 ft | 375 kts | 246° |
| 2026-05-08 09:10 | 44.54522 | 53.30456 | 34552 ft | 372 kts | 246° |
| 2026-05-08 09:10 | 44.53561 | 53.27246 | 34004 ft | 370 kts | 246° |
| 2026-05-08 09:10 | 44.52575 | 53.23938 | 33478 ft | 366 kts | 246° |
| 2026-05-08 09:11 | 44.51597 | 53.20674 | 32967 ft | 362 kts | 246° |
| 2026-05-08 09:11 | 44.50622 | 53.17431 | 32475 ft | 358 kts | 246° |
| 2026-05-08 09:11 | 44.49664 | 53.14235 | 31954 ft | 354 kts | 246° |
| 2026-05-08 09:11 | 44.48712 | 53.11064 | 31431 ft | 351 kts | 246° |
| 2026-05-08 09:12 | 44.47773 | 53.07955 | 30910 ft | 347 kts | 246° |
| 2026-05-08 09:12 | 44.46836 | 53.04856 | 30420 ft | 342 kts | 246° |
| 2026-05-08 09:12 | 44.45907 | 53.01790 | 29940 ft | 338 kts | 246° |
| 2026-05-08 09:12 | 44.45000 | 52.98789 | 29430 ft | 335 kts | 246° |
| 2026-05-08 09:13 | 44.44099 | 52.95811 | 28932 ft | 332 kts | 246° |
| 2026-05-08 09:13 | 44.43203 | 52.92853 | 28443 ft | 328 kts | 246° |
| 2026-05-08 09:13 | 44.42319 | 52.89944 | 27969 ft | 325 kts | 246° |
| 2026-05-08 09:13 | 44.41440 | 52.87053 | 27522 ft | 321 kts | 245° |
| 2026-05-08 09:14 | 44.40576 | 52.84195 | 27055 ft | 318 kts | 246° |
| 2026-05-08 09:14 | 44.39715 | 52.81341 | 26568 ft | 316 kts | 246° |
| 2026-05-08 09:14 | 44.38861 | 52.78523 | 26093 ft | 314 kts | 245° |
| 2026-05-08 09:14 | 44.38007 | 52.75722 | 25629 ft | 311 kts | 245° |
| 2026-05-08 09:15 | 44.37163 | 52.72955 | 25198 ft | 308 kts | 245° |
| 2026-05-08 09:15 | 44.36328 | 52.70220 | 24728 ft | 306 kts | 245° |
| 2026-05-08 09:15 | 44.35522 | 52.67582 | 24285 ft | 304 kts | 245° |
| 2026-05-08 09:15 | 44.34690 | 52.64871 | 23831 ft | 303 kts | 245° |
| 2026-05-08 09:16 | 44.33864 | 52.62171 | 23372 ft | 302 kts | 245° |
| 2026-05-08 09:16 | 44.33051 | 52.59519 | 22925 ft | 300 kts | 245° |
| 2026-05-08 09:16 | 44.32230 | 52.56842 | 22461 ft | 299 kts | 245° |
| 2026-05-08 09:16 | 44.31417 | 52.54191 | 22009 ft | 298 kts | 246° |
| 2026-05-08 09:17 | 44.30600 | 52.51539 | 21539 ft | 297 kts | 246° |
| 2026-05-08 09:17 | 44.29777 | 52.48869 | 21063 ft | 300 kts | 246° |
| 2026-05-08 09:17 | 44.28955 | 52.46199 | 20612 ft | 299 kts | 246° |
| 2026-05-08 09:17 | 44.28134 | 52.43543 | 20176 ft | 297 kts | 246° |
| 2026-05-08 09:18 | 44.27320 | 52.40907 | 19735 ft | 295 kts | 246° |